TFM - Tactical Decision Aid
ID: Runway Winds: CIG/VIS Threshold:

KHOB - Hobbs Arpt, NM, US

Updated at: 2135 UTC 01 Dec 2021
Latest TAF at: 1726 UTC 01 Dec 2021

TAF Board

Time2050Z 01/22Z 01/23Z 02/00Z 02/01Z 02/02Z 02/03Z 02/04Z 02/05Z 02/06Z 02/07Z 02/08Z 02/09Z 02/10Z>>
Type OBS PRVL PRVL PRVL PRVL PRVL PRVL PRVL PRVL PRVL PRVL PRVL PRVL PRVL
VIS 10 >6 >6 >6 >6 >6 >6 >6 >6 >6 >6 >6 >6 >6
CIG -- -- -- -- -- -- -- -- -- -- -- -- -- --
Cover SKC SCT SCT SCT SCT SCT SCT SCT SCT SCT SCT SCT SCT SCT
FltCat VFR VFR VFR VFR VFR VFR VFR VFR VFR VFR VFR VFR VFR VFR
WX -- -- -- -- -- -- -- -- -- -- -- -- -- --
WDir 230 250 250 250 250 250 250 250 250 250 250 250 250 250
WSpd 8 11 11 11 11 11 11 11 11 11 11 11 11 11
WGst -- -- -- -- -- -- -- -- -- -- -- -- -- --
WSHgt -- -- -- -- -- -- -- -- -- -- -- -- -- --
WSDir -- -- -- -- -- -- -- -- -- -- -- -- -- --
WSSpd -- -- -- -- -- -- -- -- -- -- -- -- -- --

TDA Impact Legend

  None Marginal Slight Moderate High
Visibility (sm) >5 3≤X≤5 2≤X<3 0.5≤X<2 <0.5
Ceiling (100 ft) >30 10≤X≤30 6≤X<10 2≤X<6 <2
Wind Speed (kt) <15 15≤X<25 25≤X<30 ≥30
Wind Gust (kt) <15 15≤X<25 25≤X<35 ≥35
Weather No Wx Reported VCTS -TS,-FZRA TS,FZRA +TS,+FZRA
TAF
KHOB 011726Z 0118/0218 25011KT P6SM SCT200

METAR
KHOB 012050Z 23008KT 10SM SKC 25/M05 A3015
KHOB 011950Z 20009KT 10SM SKC 25/M06 A3016
KHOB 011850Z 23008KT 10SM SKC 24/M05 A3018

Radar Display
Forecast Discussion